CPX266 Details

Departure: Charlotte/Douglas International Airport (KCLT)
Arrival: March Air Reserve Base (KRIV) at N/A
Route: BOBZY4 BNA J46 TUL PNH J78 DRK J134 TRM ARKOE1
Notes:


Current Weather Information
KCLT 171552Z 05003KT 9SM FEW025 FEW110 FEW250 31/23 A3005 RMK AO2 SLP166 T03060228
KRIV 171558Z 00000KT 5SM BR SCT006 17/17 A2995 RMK AO2A SLP133 T01650165